Time,TemperatureF,DewpointF,PressureIn,WindDirection,WindDirectionDegrees,WindSpeedMPH,WindSpeedGustMPH,Humidity,HourlyPrecipIn,Conditions,Clouds,dailyrainin,SoftwareType,DateUTC
2013-02-10 00:08:00,28.5,21.0,30.29,South,181,0.0,-999.0,73,-99.99,,,0.00,weatherlink.com 1.10,2013-02-10 05:08:00,
2013-02-10 00:23:00,28.5,18.0,30.29,South,181,0.0,-999.0,65,-99.99,,,0.00,weatherlink.com 1.10,2013-02-10 05:23:00,
2013-02-10 00:38:00,30.4,17.0,30.28,South,181,0.0,-999.0,58,-99.99,,,0.00,weatherlink.com 1.10,2013-02-10 05:38:00,
2013-02-10 00:54:00,31.8,17.0,30.27,SW,227,0.0,-999.0,55,-99.99,,,0.00,weatherlink.com 1.10,2013-02-10 05:54:00,
2013-02-10 01:09:00,32.9,17.0,30.27,SW,229,0.0,-999.0,53,-99.99,,,0.00,weatherlink.com 1.10,2013-02-10 06:09:00,
2013-02-10 01:24:00,33.1,18.0,30.26,SW,229,0.0,-999.0,54,-99.99,,,0.00,weatherlink.com 1.10,2013-02-10 06:24:00,
2013-02-10 01:39:00,32.7,19.0,30.26,SSW,203,0.0,-999.0,57,-99.99,,,0.00,weatherlink.com 1.10,2013-02-10 06:39:00,
2013-02-10 01:54:00,32.9,17.0,30.26,ESE,106,0.0,-999.0,53,-99.99,,,0.00,weatherlink.com 1.10,2013-02-10 06:54:00,
2013-02-10 02:09:00,32.7,18.0,30.27,East,83,0.0,-999.0,55,-99.99,,,0.00,weatherlink.com 1.10,2013-02-10 07:09:00,
2013-02-10 02:24:00,32.1,18.0,30.27,ESE,102,0.0,-999.0,57,-99.99,,,0.00,weatherlink.com 1.10,2013-02-10 07:24:00,
2013-02-10 02:39:00,32.5,17.0,30.27,South,182,0.0,-999.0,54,-99.99,,,0.00,weatherlink.com 1.10,2013-02-10 07:39:00,
2013-02-10 02:54:00,32.4,18.0,30.27,WNW,287,0.0,-999.0,55,-99.99,,,0.00,weatherlink.com 1.10,2013-02-10 07:54:00,
2013-02-10 03:09:00,32.5,19.0,30.27,SSW,212,0.0,-999.0,57,-99.99,,,0.00,weatherlink.com 1.10,2013-02-10 08:09:00,
2013-02-10 03:24:00,33.5,17.0,30.26,WSW,257,0.0,-999.0,52,-99.99,,,0.00,weatherlink.com 1.10,2013-02-10 08:24:00,
2013-02-10 03:39:00,33.7,18.0,30.26,SSE,165,0.0,-999.0,52,-99.99,,,0.00,weatherlink.com 1.10,2013-02-10 08:39:00,
2013-02-10 03:54:00,34.0,19.0,30.26,SSE,147,0.0,-999.0,54,-99.99,,,0.00,weatherlink.com 1.10,2013-02-10 08:54:00,
2013-02-10 04:09:00,33.7,16.0,30.26,WNW,294,0.0,-999.0,49,-99.99,,,0.00,weatherlink.com 1.10,2013-02-10 09:09:00,
2013-02-10 04:24:00,33.4,18.0,30.26,WNW,292,0.0,-999.0,54,-99.99,,,0.00,weatherlink.com 1.10,2013-02-10 09:24:00,
2013-02-10 04:39:00,33.1,17.0,30.27,WNW,292,0.0,-999.0,52,-99.99,,,0.00,weatherlink.com 1.10,2013-02-10 09:39:00,
2013-02-10 04:54:00,32.9,18.0,30.28,WNW,292,0.0,-999.0,54,-99.99,,,0.00,weatherlink.com 1.10,2013-02-10 09:54:00,
2013-02-10 05:09:00,32.7,18.0,30.27,WNW,294,0.0,-999.0,55,-99.99,,,0.00,weatherlink.com 1.10,2013-02-10 10:09:00,
2013-02-10 05:24:00,32.7,18.0,30.28,WNW,294,0.0,-999.0,54,-99.99,,,0.00,weatherlink.com 1.10,2013-02-10 10:24:00,
2013-02-10 05:39:00,32.8,19.0,30.31,WSW,246,0.0,-999.0,57,-99.99,,,0.00,weatherlink.com 1.10,2013-02-10 10:39:00,
2013-02-10 05:54:00,32.5,18.0,30.31,WSW,246,0.0,-999.0,55,-99.99,,,0.00,weatherlink.com 1.10,2013-02-10 10:54:00,
2013-02-10 06:09:00,32.4,18.0,30.31,WSW,246,0.0,-999.0,55,-99.99,,,0.00,weatherlink.com 1.10,2013-02-10 11:09:00,
2013-02-10 06:24:00,32.4,19.0,30.33,WSW,246,0.0,-999.0,58,-99.99,,,0.00,weatherlink.com 1.10,2013-02-10 11:24:00,
2013-02-10 06:39:00,32.2,19.0,30.34,WSW,246,0.0,-999.0,59,-99.99,,,0.00,weatherlink.com 1.10,2013-02-10 11:39:00,
2013-02-10 06:54:00,32.1,20.0,30.34,NW,323,0.0,-999.0,61,-99.99,,,0.00,weatherlink.com 1.10,2013-02-10 11:54:00,
2013-02-10 07:09:00,31.8,18.0,30.35,NNW,328,0.0,-999.0,56,-99.99,,,0.00,weatherlink.com 1.10,2013-02-10 12:09:00,
2013-02-10 07:24:00,31.8,17.0,30.37,NNW,329,0.0,-999.0,55,-99.99,,,0.00,weatherlink.com 1.10,2013-02-10 12:24:00,
2013-02-10 07:39:00,31.8,18.0,30.38,NNW,329,0.0,-999.0,57,-99.99,,,0.00,weatherlink.com 1.10,2013-02-10 12:39:00,
2013-02-10 07:54:00,31.9,19.0,30.38,NNW,330,0.0,-999.0,60,-99.99,,,0.00,weatherlink.com 1.10,2013-02-10 12:54:00,
2013-02-10 08:09:00,32.1,19.0,30.37,NNW,330,0.0,-999.0,58,-99.99,,,0.00,weatherlink.com 1.10,2013-02-10 13:09:00,
2013-02-10 08:24:00,32.4,21.0,30.38,NNW,330,0.0,-999.0,62,-99.99,,,0.00,weatherlink.com 1.10,2013-02-10 13:24:00,
2013-02-10 08:39:00,32.9,19.0,30.38,NNW,330,0.0,-999.0,56,-99.99,,,0.00,weatherlink.com 1.10,2013-02-10 13:39:00,
2013-02-10 08:54:00,33.7,21.0,30.38,NNW,347,0.0,-999.0,59,-99.99,,,0.00,weatherlink.com 1.10,2013-02-10 13:54:00,
2013-02-10 09:09:00,34.3,21.0,30.38,North,352,0.0,-999.0,58,-99.99,,,0.00,weatherlink.com 1.10,2013-02-10 14:09:00,
2013-02-10 09:24:00,35.9,19.0,30.38,NNW,339,0.0,-999.0,50,-99.99,,,0.00,weatherlink.com 1.10,2013-02-10 14:24:00,
2013-02-10 09:39:00,37.2,21.0,30.37,North,0,0.0,-999.0,53,-99.99,,,0.00,weatherlink.com 1.10,2013-02-10 14:39:00,
2013-02-10 09:55:00,37.3,21.0,30.36,North,0,0.0,-999.0,53,-99.99,,,0.00,weatherlink.com 1.10,2013-02-10 14:55:00,
2013-02-10 10:10:00,38.5,22.0,30.36,North,7,1.0,-999.0,51,-99.99,,,0.00,weatherlink.com 1.10,2013-02-10 15:10:00,
2013-02-10 10:24:00,40.3,20.0,30.34,NE,40,0.0,-999.0,45,-99.99,,,0.00,weatherlink.com 1.10,2013-02-10 15:24:00,
2013-02-10 10:39:00,40.5,18.0,30.34,WNW,284,0.0,-999.0,41,-99.99,,,0.00,weatherlink.com 1.10,2013-02-10 15:39:00,
2013-02-10 10:55:00,41.2,18.0,30.36,NNE,18,0.0,-999.0,40,-99.99,,,0.00,weatherlink.com 1.10,2013-02-10 15:55:00,
2013-02-10 11:09:00,42.6,19.0,30.35,SSW,193,0.0,-999.0,39,-99.99,,,0.00,weatherlink.com 1.10,2013-02-10 16:09:00,
2013-02-10 11:24:00,43.2,18.0,30.33,NE,40,7.0,-999.0,36,-99.99,,,0.00,weatherlink.com 1.10,2013-02-10 16:24:00,
2013-02-10 11:39:00,42.6,17.0,30.33,West,267,1.0,-999.0,36,-99.99,,,0.00,weatherlink.com 1.10,2013-02-10 16:39:00,
2013-02-10 11:54:00,42.1,17.0,30.32,South,188,2.0,-999.0,37,-99.99,,,0.00,weatherlink.com 1.10,2013-02-10 16:54:00,
2013-02-10 12:10:00,42.3,18.0,30.32,SSW,213,2.0,-999.0,37,-99.99,,,0.00,weatherlink.com 1.10,2013-02-10 17:10:00,
2013-02-10 12:25:00,42.2,19.0,30.31,East,88,2.0,-999.0,39,-99.99,,,0.00,weatherlink.com 1.10,2013-02-10 17:25:00,
2013-02-10 12:40:00,41.8,18.0,30.29,NE,54,2.0,-999.0,39,-99.99,,,0.00,weatherlink.com 1.10,2013-02-10 17:40:00,
2013-02-10 12:55:00,41.5,21.0,30.28,NW,316,0.0,-999.0,44,-99.99,,,0.00,weatherlink.com 1.10,2013-02-10 17:55:00,
2013-02-10 13:10:00,41.6,19.0,30.27,ENE,59,1.0,-999.0,41,-99.99,,,0.00,weatherlink.com 1.10,2013-02-10 18:10:00,
2013-02-10 13:25:00,41.1,20.0,30.27,SSW,195,2.0,-999.0,43,-99.99,,,0.00,weatherlink.com 1.10,2013-02-10 18:25:00,
2013-02-10 13:40:00,42.3,20.0,30.26,North,1,7.0,-999.0,41,-99.99,,,0.00,weatherlink.com 1.10,2013-02-10 18:40:00,
2013-02-10 13:55:00,42.9,20.0,30.24,North,0,2.0,-999.0,40,-99.99,,,0.00,weatherlink.com 1.10,2013-02-10 18:55:00,
2013-02-10 14:10:00,44.3,21.0,30.23,ESE,120,6.0,-999.0,40,-99.99,,,0.00,weatherlink.com 1.10,2013-02-10 19:10:00,
2013-02-10 14:25:00,44.5,22.0,30.21,NW,304,0.0,-999.0,41,-99.99,,,0.00,weatherlink.com 1.10,2013-02-10 19:25:00,
2013-02-10 14:40:00,44.1,23.0,30.20,North,11,0.0,-999.0,44,-99.99,,,0.00,weatherlink.com 1.10,2013-02-10 19:40:00,
2013-02-10 14:55:00,44.2,21.0,30.20,SSW,208,0.0,-999.0,40,-99.99,,,0.00,weatherlink.com 1.10,2013-02-10 19:55:00,
2013-02-10 15:10:00,44.6,22.0,30.20,NE,45,0.0,-999.0,41,-99.99,,,0.00,weatherlink.com 1.10,2013-02-10 20:10:00,
2013-02-10 15:25:00,43.6,22.0,30.20,North,1,0.0,-999.0,43,-99.99,,,0.00,weatherlink.com 1.10,2013-02-10 20:25:00,
2013-02-10 15:40:00,42.8,22.0,30.20,NNE,30,1.0,-999.0,43,-99.99,,,0.00,weatherlink.com 1.10,2013-02-10 20:40:00,
2013-02-10 15:55:00,42.9,23.0,30.20,North,359,0.0,-999.0,46,-99.99,,,0.00,weatherlink.com 1.10,2013-02-10 20:55:00,
2013-02-10 16:10:00,42.9,22.0,30.19,NNW,344,0.0,-999.0,44,-99.99,,,0.00,weatherlink.com 1.10,2013-02-10 21:10:00,
2013-02-10 16:25:00,42.8,23.0,30.19,South,185,0.0,-999.0,45,-99.99,,,0.00,weatherlink.com 1.10,2013-02-10 21:25:00,
2013-02-10 16:40:00,42.5,24.0,30.18,NE,35,0.0,-999.0,48,-99.99,,,0.00,weatherlink.com 1.10,2013-02-10 21:40:00,
2013-02-10 16:55:00,42.1,22.0,30.19,North,357,0.0,-999.0,45,-99.99,,,0.00,weatherlink.com 1.10,2013-02-10 21:55:00,
2013-02-10 17:10:00,41.8,22.0,30.20,NNW,340,0.0,-999.0,46,-99.99,,,0.00,weatherlink.com 1.10,2013-02-10 22:10:00,
2013-02-10 17:25:00,41.3,22.0,30.20,East,82,0.0,-999.0,47,-99.99,,,0.00,weatherlink.com 1.10,2013-02-10 22:25:00,
2013-02-10 17:40:00,40.8,23.0,30.21,North,359,0.0,-999.0,49,-99.99,,,0.00,weatherlink.com 1.10,2013-02-10 22:40:00,
2013-02-10 17:55:00,40.5,23.0,30.21,SSW,203,0.0,-999.0,49,-99.99,,,0.00,weatherlink.com 1.10,2013-02-10 22:55:00,
2013-02-10 18:10:00,40.3,22.0,30.22,WSW,239,0.0,-999.0,49,-99.99,,,0.00,weatherlink.com 1.10,2013-02-10 23:10:00,
2013-02-10 18:25:00,40.1,24.0,30.21,NNW,337,0.0,-999.0,53,-99.99,,,0.00,weatherlink.com 1.10,2013-02-10 23:25:00,
2013-02-10 18:40:00,39.2,26.0,30.23,NE,49,0.0,-999.0,60,-99.99,,,0.00,weatherlink.com 1.10,2013-02-10 23:40:00,
2013-02-10 18:55:00,37.8,29.0,30.24,NE,52,0.0,-999.0,70,-99.99,,,0.00,weatherlink.com 1.10,2013-02-10 23:55:00,
2013-02-10 19:10:00,36.6,30.0,30.23,ENE,61,0.0,-999.0,78,-99.99,,,0.00,weatherlink.com 1.10,2013-02-11 00:10:00,
2013-02-10 19:25:00,35.6,31.0,30.24,ENE,59,0.0,-999.0,84,-99.99,,,0.00,weatherlink.com 1.10,2013-02-11 00:25:00,
2013-02-10 19:40:00,35.0,32.0,30.24,NNW,339,0.0,-999.0,88,-99.99,,,0.04,weatherlink.com 1.10,2013-02-11 00:40:00,
2013-02-10 19:55:00,34.4,32.0,30.24,NNW,339,0.0,-999.0,90,-99.99,,,0.07,weatherlink.com 1.10,2013-02-11 00:55:00,
2013-02-10 20:10:00,34.0,32.0,30.23,NNW,342,0.0,-999.0,92,-99.99,,,0.09,weatherlink.com 1.10,2013-02-11 01:10:00,
2013-02-10 20:25:00,33.8,32.0,30.24,NNW,342,0.0,-999.0,92,-99.99,,,0.09,weatherlink.com 1.10,2013-02-11 01:25:00,
2013-02-10 20:40:00,33.8,32.0,30.23,NNW,342,0.0,-999.0,93,-99.99,,,0.10,weatherlink.com 1.10,2013-02-11 01:40:00,
2013-02-10 20:55:00,33.8,32.0,30.23,NNW,342,0.0,-999.0,94,-99.99,,,0.10,weatherlink.com 1.10,2013-02-11 01:55:00,
2013-02-10 21:10:00,33.5,32.0,30.23,North,350,0.0,-999.0,94,-99.99,,,0.11,weatherlink.com 1.10,2013-02-11 02:10:00,
2013-02-10 21:25:00,33.7,33.0,30.20,NW,312,2.0,-999.0,96,-99.99,,,0.12,weatherlink.com 1.10,2013-02-11 02:25:00,
2013-02-10 21:40:00,34.1,33.0,30.18,NNW,347,0.0,-999.0,95,-99.99,,,0.12,weatherlink.com 1.10,2013-02-11 02:40:00,
2013-02-10 21:55:00,34.3,33.0,30.18,ENE,59,1.0,-999.0,96,-99.99,,,0.13,weatherlink.com 1.10,2013-02-11 02:55:00,
2013-02-10 22:10:00,35.2,35.0,30.17,ENE,78,0.0,-999.0,97,-99.99,,,0.13,weatherlink.com 1.10,2013-02-11 03:10:00,
2013-02-10 22:25:00,35.3,35.0,30.16,NW,308,0.0,-999.0,97,-99.99,,,0.13,weatherlink.com 1.10,2013-02-11 03:25:00,
2013-02-10 22:40:00,35.5,35.0,30.14,NE,38,0.0,-999.0,97,-99.99,,,0.13,weatherlink.com 1.10,2013-02-11 03:40:00,
2013-02-10 22:55:00,36.0,36.0,30.13,North,0,3.0,-999.0,98,-99.99,,,0.13,weatherlink.com 1.10,2013-02-11 03:55:00,
2013-02-10 23:10:00,36.9,37.0,30.13,NNW,332,1.0,-999.0,99,-99.99,,,0.14,weatherlink.com 1.10,2013-02-11 04:10:00,
2013-02-10 23:25:00,38.5,39.0,30.10,East,97,6.0,-999.0,100,-99.99,,,0.14,weatherlink.com 1.10,2013-02-11 04:25:00,
2013-02-10 23:40:00,39.5,40.0,30.08,West,267,7.0,-999.0,100,-99.99,,,0.15,weatherlink.com 1.10,2013-02-11 04:40:00,
2013-02-10 23:55:00,39.3,39.0,30.07,North,10,3.0,-999.0,100,-99.99,,,0.15,weatherlink.com 1.10,2013-02-11 04:55:00,